sensor_id;sensor_type;location;lat;lon;timestamp;pressure;altitude;pressure_sealevel;temperature;humidity
9419;BME280;4748;50.802;7.132;2022-12-08T00:01:58;100563.50;;;6.06;100.00
9419;BME280;4748;50.802;7.132;2022-12-08T00:04:23;100560.63;;;6.01;100.00
9419;BME280;4748;50.802;7.132;2022-12-08T00:06:48;100557.97;;;6.01;100.00
9419;BME280;4748;50.802;7.132;2022-12-08T00:09:40;100552.66;;;6.01;100.00
9419;BME280;4748;50.802;7.132;2022-12-08T00:12:07;100551.84;;;6.01;100.00
9419;BME280;4748;50.802;7.132;2022-12-08T00:14:35;100555.69;;;5.98;100.00
9419;BME280;4748;50.802;7.132;2022-12-08T00:17:00;100558.97;;;6.00;100.00
9419;BME280;4748;50.802;7.132;2022-12-08T00:19:28;100555.69;;;5.98;100.00
9419;BME280;4748;50.802;7.132;2022-12-08T00:21:54;100544.66;;;6.01;100.00
9419;BME280;4748;50.802;7.132;2022-12-08T00:24:20;100550.78;;;6.02;100.00
9419;BME280;4748;50.802;7.132;2022-12-08T00:26:46;100540.16;;;6.02;100.00
9419;BME280;4748;50.802;7.132;2022-12-08T00:29:12;100541.41;;;5.99;100.00
9419;BME280;4748;50.802;7.132;2022-12-08T00:31:38;100533.44;;;5.99;100.00
9419;BME280;4748;50.802;7.132;2022-12-08T00:34:04;100533.44;;;5.99;100.00
9419;BME280;4748;50.802;7.132;2022-12-08T00:36:29;100519.69;;;5.96;100.00
9419;BME280;4748;50.802;7.132;2022-12-08T00:38:55;100530.38;;;6.02;100.00
9419;BME280;4748;50.802;7.132;2022-12-08T00:41:22;100524.03;;;6.03;100.00
9419;BME280;4748;50.802;7.132;2022-12-08T00:44:09;100522.56;;;5.94;100.00
9419;BME280;4748;50.802;7.132;2022-12-08T00:46:35;100521.75;;;5.94;100.00
9419;BME280;4748;50.802;7.132;2022-12-08T00:49:01;100517.63;;;5.91;100.00
9419;BME280;4748;50.802;7.132;2022-12-08T00:51:26;100509.22;;;5.88;100.00
9419;BME280;4748;50.802;7.132;2022-12-08T00:53:52;100508.00;;;5.90;100.00
9419;BME280;4748;50.802;7.132;2022-12-08T00:56:17;100514.59;;;5.94;100.00
9419;BME280;4748;50.802;7.132;2022-12-08T00:58:42;100496.59;;;5.96;100.00
9419;BME280;4748;50.802;7.132;2022-12-08T01:01:12;100503.34;;;5.92;100.00
9419;BME280;4748;50.802;7.132;2022-12-08T01:03:37;100509.41;;;5.86;100.00
9419;BME280;4748;50.802;7.132;2022-12-08T01:06:04;100503.25;;;5.79;100.00
9419;BME280;4748;50.802;7.132;2022-12-08T01:08:29;100503.28;;;5.86;100.00
9419;BME280;4748;50.802;7.132;2022-12-08T01:10:55;100506.94;;;5.85;100.00
9419;BME280;4748;50.802;7.132;2022-12-08T01:13:20;100503.09;;;5.87;100.00
9419;BME280;4748;50.802;7.132;2022-12-08T01:15:45;100503.53;;;5.91;100.00
9419;BME280;4748;50.802;7.132;2022-12-08T01:18:11;100497.59;;;5.89;100.00
9419;BME280;4748;50.802;7.132;2022-12-08T01:20:36;100507.63;;;5.93;100.00
9419;BME280;4748;50.802;7.132;2022-12-08T01:23:01;100503.09;;;5.87;100.00
9419;BME280;4748;50.802;7.132;2022-12-08T01:25:27;100496.13;;;5.86;100.00
9419;BME280;4748;50.802;7.132;2022-12-08T01:27:52;100484.94;;;5.91;100.00
9419;BME280;4748;50.802;7.132;2022-12-08T01:30:18;100498.03;;;5.92;100.00
9419;BME280;4748;50.802;7.132;2022-12-08T01:32:44;100500.44;;;5.87;100.00
9419;BME280;4748;50.802;7.132;2022-12-08T01:35:09;100493.34;;;5.94;100.00
9419;BME280;4748;50.802;7.132;2022-12-08T01:37:35;100492.31;;;5.95;100.00
9419;BME280;4748;50.802;7.132;2022-12-08T01:40:00;100496.41;;;5.98;100.00
9419;BME280;4748;50.802;7.132;2022-12-08T01:42:25;100496.38;;;5.91;100.00
9419;BME280;4748;50.802;7.132;2022-12-08T01:45:03;100485.75;;;5.91;100.00
9419;BME280;4748;50.802;7.132;2022-12-08T01:47:36;100490.72;;;6.01;100.00
9419;BME280;4748;50.802;7.132;2022-12-08T01:50:05;100497.66;;;6.02;100.00
9419;BME280;4748;50.802;7.132;2022-12-08T01:52:37;100498.50;;;6.02;100.00
9419;BME280;4748;50.802;7.132;2022-12-08T01:57:49;100489.19;;;5.85;100.00
9419;BME280;4748;50.802;7.132;2022-12-08T02:00:19;100481.69;;;5.95;100.00
9419;BME280;4748;50.802;7.132;2022-12-08T02:02:54;100481.06;;;5.93;100.00
9419;BME280;4748;50.802;7.132;2022-12-08T02:05:27;100490.28;;;5.97;100.00
9419;BME280;4748;50.802;7.132;2022-12-08T02:07:54;100482.38;;;6.04;100.00
9419;BME280;4748;50.802;7.132;2022-12-08T02:10:21;100478.25;;;6.01;100.00
9419;BME280;4748;50.802;7.132;2022-12-08T02:12:49;100483.38;;;6.03;100.00
9419;BME280;4748;50.802;7.132;2022-12-08T02:15:16;100475.59;;;6.01;100.00
9419;BME280;4748;50.802;7.132;2022-12-08T02:20:43;100475.81;;;6.00;100.00
9419;BME280;4748;50.802;7.132;2022-12-08T02:23:26;100469.91;;;6.04;100.00
9419;BME280;4748;50.802;7.132;2022-12-08T02:37:28;100461.94;;;6.04;100.00
9419;BME280;4748;50.802;7.132;2022-12-08T02:40:21;100461.34;;;6.08;100.00
9419;BME280;4748;50.802;7.132;2022-12-08T02:42:59;100455.81;;;6.10;100.00
9419;BME280;4748;50.802;7.132;2022-12-08T02:45:34;100451.56;;;6.09;100.00
9419;BME280;4748;50.802;7.132;2022-12-08T02:48:01;100453.16;;;6.04;100.00
9419;BME280;4748;50.802;7.132;2022-12-08T02:50:27;100449.66;;;6.03;100.00
9419;BME280;4748;50.802;7.132;2022-12-08T02:52:53;100441.28;;;6.06;100.00
9419;BME280;4748;50.802;7.132;2022-12-08T02:58:11;100439.88;;;6.10;100.00
9419;BME280;4748;50.802;7.132;2022-12-08T03:02:07;100436.63;;;6.08;100.00
9419;BME280;4748;50.802;7.132;2022-12-08T03:04:05;100428.44;;;6.09;100.00
9419;BME280;4748;50.802;7.132;2022-12-08T03:06:49;100426.66;;;6.16;100.00
9419;BME280;4748;50.802;7.132;2022-12-08T03:11:59;100419.28;;;6.12;100.00
9419;BME280;4748;50.802;7.132;2022-12-08T03:14:26;100416.81;;;6.10;100.00
9419;BME280;4748;50.802;7.132;2022-12-08T03:16:54;100414.34;;;6.09;100.00
9419;BME280;4748;50.802;7.132;2022-12-08T03:19:31;100404.94;;;6.07;100.00
9419;BME280;4748;50.802;7.132;2022-12-08T03:21:59;100412.50;;;6.09;100.00
9419;BME280;4748;50.802;7.132;2022-12-08T03:24:34;100403.91;;;6.07;100.00
9419;BME280;4748;50.802;7.132;2022-12-08T03:27:09;100413.72;;;6.07;100.00
9419;BME280;4748;50.802;7.132;2022-12-08T03:29:36;100405.78;;;6.13;100.00
9419;BME280;4748;50.802;7.132;2022-12-08T03:34:39;100400.47;;;6.13;100.00
9419;BME280;4748;50.802;7.132;2022-12-08T03:37:06;100405.41;;;6.23;100.00
9419;BME280;4748;50.802;7.132;2022-12-08T03:39:31;100390.25;;;6.17;100.00
9419;BME280;4748;50.802;7.132;2022-12-08T03:41:57;100401.13;;;6.22;100.00
9419;BME280;4748;50.802;7.132;2022-12-08T03:44:22;100383.09;;;6.17;100.00
9419;BME280;4748;50.802;7.132;2022-12-08T03:46:48;100380.84;;;6.14;100.00
9419;BME280;4748;50.802;7.132;2022-12-08T03:49:13;100373.72;;;6.21;100.00
9419;BME280;4748;50.802;7.132;2022-12-08T03:51:38;100370.84;;;6.23;100.00
9419;BME280;4748;50.802;7.132;2022-12-08T03:54:04;100372.69;;;6.22;100.00
9419;BME280;4748;50.802;7.132;2022-12-08T03:56:32;100363.31;;;6.26;100.00
9419;BME280;4748;50.802;7.132;2022-12-08T03:58:58;100359.81;;;6.26;100.00
9419;BME280;4748;50.802;7.132;2022-12-08T04:01:24;100366.53;;;6.15;100.00
9419;BME280;4748;50.802;7.132;2022-12-08T04:03:49;100363.72;;;6.23;100.00
9419;BME280;4748;50.802;7.132;2022-12-08T04:06:16;100366.97;;;6.19;100.00
9419;BME280;4748;50.802;7.132;2022-12-08T04:08:41;100357.56;;;6.16;100.00
9419;BME280;4748;50.802;7.132;2022-12-08T04:11:07;100362.03;;;6.16;100.00
9419;BME280;4748;50.802;7.132;2022-12-08T04:13:34;100349.16;;;6.07;100.00
9419;BME280;4748;50.802;7.132;2022-12-08T04:16:00;100353.81;;;6.05;100.00
9419;BME280;4748;50.802;7.132;2022-12-08T04:18:25;100348.75;;;6.09;100.00
9419;BME280;4748;50.802;7.132;2022-12-08T04:20:50;100343.25;;;6.17;100.00
9419;BME280;4748;50.802;7.132;2022-12-08T04:23:16;100347.34;;;6.13;100.00
9419;BME280;4748;50.802;7.132;2022-12-08T04:25:42;100339.78;;;6.17;100.00
9419;BME280;4748;50.802;7.132;2022-12-08T04:28:07;100333.84;;;6.15;100.00
9419;BME280;4748;50.802;7.132;2022-12-08T04:30:34;100338.53;;;6.13;100.00
9419;BME280;4748;50.802;7.132;2022-12-08T04:32:59;100340.78;;;6.09;100.00
9419;BME280;4748;50.802;7.132;2022-12-08T04:35:25;100334.47;;;6.17;100.00
9419;BME280;4748;50.802;7.132;2022-12-08T04:37:50;100336.72;;;6.13;100.00
9419;BME280;4748;50.802;7.132;2022-12-08T04:40:16;100327.69;;;6.14;100.00
9419;BME280;4748;50.802;7.132;2022-12-08T04:42:43;100336.31;;;6.16;100.00
9419;BME280;4748;50.802;7.132;2022-12-08T04:45:08;100332.44;;;6.19;100.00
9419;BME280;4748;50.802;7.132;2022-12-08T04:47:34;100329.78;;;6.19;100.00
9419;BME280;4748;50.802;7.132;2022-12-08T04:49:59;100333.25;;;6.19;100.00
9419;BME280;4748;50.802;7.132;2022-12-08T04:52:25;100335.31;;;6.24;100.00
9419;BME280;4748;50.802;7.132;2022-12-08T04:54:50;100337.34;;;6.22;100.00
9419;BME280;4748;50.802;7.132;2022-12-08T04:57:15;100335.09;;;6.19;100.00
9419;BME280;4748;50.802;7.132;2022-12-08T04:59:41;100332.38;;;6.06;100.00
9419;BME280;4748;50.802;7.132;2022-12-08T05:02:06;100324.03;;;6.09;100.00
9419;BME280;4748;50.802;7.132;2022-12-08T05:04:31;100322.38;;;6.08;100.00
9419;BME280;4748;50.802;7.132;2022-12-08T05:06:57;100321.53;;;6.07;100.00
9419;BME280;4748;50.802;7.132;2022-12-08T05:09:22;100327.25;;;6.05;100.00
9419;BME280;4748;50.802;7.132;2022-12-08T05:11:47;100318.31;;;6.12;100.00
9419;BME280;4748;50.802;7.132;2022-12-08T05:14:14;100315.00;;;6.04;100.00
9419;BME280;4748;50.802;7.132;2022-12-08T05:16:40;100323.19;;;6.08;100.00
9419;BME280;4748;50.802;7.132;2022-12-08T05:19:06;100317.47;;;6.05;100.00
9419;BME280;4748;50.802;7.132;2022-12-08T05:21:31;100314.81;;;6.05;100.00
9419;BME280;4748;50.802;7.132;2022-12-08T05:23:57;100314.59;;;6.07;100.00
9419;BME280;4748;50.802;7.132;2022-12-08T05:26:22;100316.63;;;5.98;100.00
9419;BME280;4748;50.802;7.132;2022-12-08T05:28:47;100315.38;;;5.94;100.00
9419;BME280;4748;50.802;7.132;2022-12-08T05:31:14;100308.25;;;6.01;100.00
9419;BME280;4748;50.802;7.132;2022-12-08T05:33:40;100307.84;;;6.04;100.00
9419;BME280;4748;50.802;7.132;2022-12-08T05:36:06;100299.06;;;6.10;100.00
9419;BME280;4748;50.802;7.132;2022-12-08T05:38:31;100298.44;;;6.02;100.00
9419;BME280;4748;50.802;7.132;2022-12-08T05:40:57;100296.00;;;6.07;100.00
9419;BME280;4748;50.802;7.132;2022-12-08T05:43:22;100295.56;;;6.03;100.00
9419;BME280;4748;50.802;7.132;2022-12-08T05:45:48;100294.59;;;6.10;100.00
9419;BME280;4748;50.802;7.132;2022-12-08T05:48:13;100286.22;;;6.13;100.00
9419;BME280;4748;50.802;7.132;2022-12-08T05:50:39;100288.84;;;6.07;100.00
9419;BME280;4748;50.802;7.132;2022-12-08T05:53:04;100276.81;;;6.11;100.00
9419;BME280;4748;50.802;7.132;2022-12-08T05:55:30;100283.94;;;6.04;100.00
9419;BME280;4748;50.802;7.132;2022-12-08T05:57:56;100277.63;;;6.11;100.00
9419;BME280;4748;50.802;7.132;2022-12-08T06:00:21;100281.09;;;6.06;100.00
9419;BME280;4748;50.802;7.132;2022-12-08T06:02:46;100285.59;;;6.11;100.00
9419;BME280;4748;50.802;7.132;2022-12-08T06:05:12;100285.19;;;6.08;100.00
9419;BME280;4748;50.802;7.132;2022-12-08T06:07:37;100285.59;;;6.05;100.00
9419;BME280;4748;50.802;7.132;2022-12-08T06:10:03;100277.81;;;6.10;100.00
9419;BME280;4748;50.802;7.132;2022-12-08T06:12:29;100280.47;;;6.10;100.00
9419;BME280;4748;50.802;7.132;2022-12-08T06:14:54;100272.50;;;6.10;100.00
9419;BME280;4748;50.802;7.132;2022-12-08T06:17:20;100282.69;;;6.00;100.00
9419;BME280;4748;50.802;7.132;2022-12-08T06:19:45;100279.44;;;6.05;100.00
9419;BME280;4748;50.802;7.132;2022-12-08T06:22:10;100284.53;;;6.06;100.00
9419;BME280;4748;50.802;7.132;2022-12-08T06:24:35;100286.44;;;6.12;100.00
9419;BME280;4748;50.802;7.132;2022-12-08T06:27:01;100281.13;;;6.12;100.00
9419;BME280;4748;50.802;7.132;2022-12-08T06:29:26;100289.50;;;6.15;100.00
9419;BME280;4748;50.802;7.132;2022-12-08T06:31:51;100280.69;;;6.08;100.00
9419;BME280;4748;50.802;7.132;2022-12-08T06:34:17;100291.09;;;6.10;100.00
9419;BME280;4748;50.802;7.132;2022-12-08T06:36:42;100279.88;;;6.14;100.00
9419;BME280;4748;50.802;7.132;2022-12-08T06:39:09;100283.78;;;6.12;100.00
9419;BME280;4748;50.802;7.132;2022-12-08T06:41:34;100274.16;;;6.11;100.00
9419;BME280;4748;50.802;7.132;2022-12-08T06:44:20;100282.53;;;6.08;100.00
9419;BME280;4748;50.802;7.132;2022-12-08T06:46:45;100282.13;;;6.11;100.00
9419;BME280;4748;50.802;7.132;2022-12-08T06:49:10;100293.75;;;6.10;100.00
9419;BME280;4748;50.802;7.132;2022-12-08T06:51:35;100289.84;;;6.06;100.00
9419;BME280;4748;50.802;7.132;2022-12-08T06:54:01;100292.50;;;6.06;100.00
9419;BME280;4748;50.802;7.132;2022-12-08T06:56:26;100294.16;;;6.01;100.00
9419;BME280;4748;50.802;7.132;2022-12-08T06:58:52;100291.72;;;5.99;100.00
9419;BME280;4748;50.802;7.132;2022-12-08T07:01:17;100302.94;;;6.01;100.00
9419;BME280;4748;50.802;7.132;2022-12-08T07:03:43;100300.88;;;6.03;100.00
9419;BME280;4748;50.802;7.132;2022-12-08T07:06:17;100296.63;;;6.08;100.00
9419;BME280;4748;50.802;7.132;2022-12-08T07:08:44;100299.47;;;6.01;100.00
9419;BME280;4748;50.802;7.132;2022-12-08T07:11:10;100281.28;;;6.04;100.00
9419;BME280;4748;50.802;7.132;2022-12-08T07:13:35;100295.56;;;5.97;100.00
9419;BME280;4748;50.802;7.132;2022-12-08T07:16:07;100295.56;;;5.97;100.00
9419;BME280;4748;50.802;7.132;2022-12-08T07:18:33;100303.16;;;6.06;100.00
9419;BME280;4748;50.802;7.132;2022-12-08T07:21:04;100298.44;;;6.02;100.00
9419;BME280;4748;50.802;7.132;2022-12-08T07:23:30;100305.56;;;5.95;100.00
9419;BME280;4748;50.802;7.132;2022-12-08T07:25:59;100302.69;;;5.96;100.00
9419;BME280;4748;50.802;7.132;2022-12-08T07:28:25;100307.66;;;6.06;100.00
9419;BME280;4748;50.802;7.132;2022-12-08T07:30:50;100309.91;;;6.02;100.00
9419;BME280;4748;50.802;7.132;2022-12-08T07:33:16;100310.50;;;6.04;100.00
9419;BME280;4748;50.802;7.132;2022-12-08T07:35:41;100306.44;;;6.08;100.00
9419;BME280;4748;50.802;7.132;2022-12-08T07:38:09;100310.91;;;6.07;100.00
9419;BME280;4748;50.802;7.132;2022-12-08T07:40:37;100298.66;;;6.07;100.00
9419;BME280;4748;50.802;7.132;2022-12-08T07:43:02;100304.19;;;6.05;100.00
9419;BME280;4748;50.802;7.132;2022-12-08T07:45:28;100297.00;;;5.99;100.00
9419;BME280;4748;50.802;7.132;2022-12-08T07:47:54;100303.34;;;6.05;100.00
9419;BME280;4748;50.802;7.132;2022-12-08T07:50:19;100301.94;;;6.08;100.00
9419;BME280;4748;50.802;7.132;2022-12-08T07:52:44;100301.09;;;6.02;100.00
9419;BME280;4748;50.802;7.132;2022-12-08T07:55:10;100304.19;;;6.05;100.00
9419;BME280;4748;50.802;7.132;2022-12-08T07:57:35;100303.94;;;6.00;100.00
9419;BME280;4748;50.802;7.132;2022-12-08T08:00:02;100308.00;;;5.96;100.00
9419;BME280;4748;50.802;7.132;2022-12-08T08:02:28;100309.91;;;6.02;100.00
9419;BME280;4748;50.802;7.132;2022-12-08T08:04:54;100301.50;;;5.99;100.00
9419;BME280;4748;50.802;7.132;2022-12-08T08:07:20;100296.63;;;6.02;100.00
9419;BME280;4748;50.802;7.132;2022-12-08T08:09:45;100304.97;;;5.99;100.00
9419;BME280;4748;50.802;7.132;2022-12-08T08:12:11;100305.19;;;6.04;100.00
9419;BME280;4748;50.802;7.132;2022-12-08T08:14:36;100303.53;;;5.97;100.00
9419;BME280;4748;50.802;7.132;2022-12-08T08:17:01;100308.84;;;5.97;100.00
9419;BME280;4748;50.802;7.132;2022-12-08T08:19:27;100308.00;;;5.96;100.00
9419;BME280;4748;50.802;7.132;2022-12-08T08:21:52;100310.09;;;6.01;100.00
9419;BME280;4748;50.802;7.132;2022-12-08T08:24:18;100311.72;;;5.95;100.00
9419;BME280;4748;50.802;7.132;2022-12-08T08:26:44;100315.97;;;5.96;100.00
9419;BME280;4748;50.802;7.132;2022-12-08T08:29:09;100316.22;;;6.01;100.00
9419;BME280;4748;50.802;7.132;2022-12-08T08:31:35;100315.41;;;6.07;100.00
9419;BME280;4748;50.802;7.132;2022-12-08T08:34:00;100312.16;;;6.05;100.00
9419;BME280;4748;50.802;7.132;2022-12-08T08:36:30;100322.34;;;6.02;100.00
9419;BME280;4748;50.802;7.132;2022-12-08T08:38:55;100311.50;;;6.03;100.00
9419;BME280;4748;50.802;7.132;2022-12-08T08:41:21;100315.00;;;6.04;100.00
9419;BME280;4748;50.802;7.132;2022-12-08T08:43:46;100307.69;;;6.12;100.00
9419;BME280;4748;50.802;7.132;2022-12-08T08:46:11;100305.63;;;6.14;100.00
9419;BME280;4748;50.802;7.132;2022-12-08T08:48:37;100315.06;;;6.16;100.00
9419;BME280;4748;50.802;7.132;2022-12-08T08:51:08;100315.25;;;6.15;100.00
9419;BME280;4748;50.802;7.132;2022-12-08T08:53:33;100307.47;;;6.13;100.00
9419;BME280;4748;50.802;7.132;2022-12-08T08:55:59;100314.63;;;6.13;100.00
9419;BME280;4748;50.802;7.132;2022-12-08T08:58:24;100309.53;;;6.18;100.00
9419;BME280;4748;50.802;7.132;2022-12-08T09:00:50;100306.88;;;6.24;100.00
9419;BME280;4748;50.802;7.132;2022-12-08T09:03:15;100305.66;;;6.27;100.00
9419;BME280;4748;50.802;7.132;2022-12-08T09:05:40;100310.56;;;6.30;100.00
9419;BME280;4748;50.802;7.132;2022-12-08T09:08:06;100311.81;;;6.34;100.00
9419;BME280;4748;50.802;7.132;2022-12-08T09:10:32;100308.16;;;6.35;100.00
9419;BME280;4748;50.802;7.132;2022-12-08T09:12:57;100308.38;;;6.46;100.00
9419;BME280;4748;50.802;7.132;2022-12-08T09:15:23;100315.09;;;6.36;100.00
9419;BME280;4748;50.802;7.132;2022-12-08T09:17:48;100316.72;;;6.37;100.00
9419;BME280;4748;50.802;7.132;2022-12-08T09:20:13;100320.41;;;6.29;100.00
9419;BME280;4748;50.802;7.132;2022-12-08T09:22:39;100318.53;;;6.30;100.00
9419;BME280;4748;50.802;7.132;2022-12-08T09:25:04;100324.06;;;6.22;100.00
9419;BME280;4748;50.802;7.132;2022-12-08T09:27:30;100327.34;;;6.37;100.00
9419;BME280;4748;50.802;7.132;2022-12-08T09:29:56;100323.28;;;6.41;100.00
9419;BME280;4748;50.802;7.132;2022-12-08T09:32:21;100330.25;;;6.42;100.00
9419;BME280;4748;50.802;7.132;2022-12-08T09:34:46;100324.94;;;6.42;100.00
9419;BME280;4748;50.802;7.132;2022-12-08T09:37:12;100320.00;;;6.39;100.00
9419;BME280;4748;50.802;7.132;2022-12-08T09:39:37;100323.28;;;6.41;100.00
9419;BME280;4748;50.802;7.132;2022-12-08T09:42:04;100323.09;;;6.42;100.00
9419;BME280;4748;50.802;7.132;2022-12-08T09:44:48;100327.34;;;6.37;100.00
9419;BME280;4748;50.802;7.132;2022-12-08T09:47:20;100323.28;;;6.47;100.00
9419;BME280;4748;50.802;7.132;2022-12-08T09:50:17;100327.59;;;6.48;100.00
9419;BME280;4748;50.802;7.132;2022-12-08T09:55:45;100322.09;;;6.56;100.00
9419;BME280;4748;50.802;7.132;2022-12-08T09:58:20;100322.69;;;6.52;100.00
9419;BME280;4748;50.802;7.132;2022-12-08T10:00:49;100318.59;;;6.49;100.00
9419;BME280;4748;50.802;7.132;2022-12-08T10:03:14;100318.41;;;6.51;100.00
9419;BME280;4748;50.802;7.132;2022-12-08T10:05:55;100310.44;;;6.51;100.00
9419;BME280;4748;50.802;7.132;2022-12-08T10:08:30;100307.53;;;6.39;100.00
9419;BME280;4748;50.802;7.132;2022-12-08T10:11:06;100303.03;;;6.40;100.00
9419;BME280;4748;50.802;7.132;2022-12-08T10:13:51;100305.69;;;6.40;100.00
9419;BME280;4748;50.802;7.132;2022-12-08T10:16:35;100303.84;;;6.34;100.00
9419;BME280;4748;50.802;7.132;2022-12-08T10:19:23;100298.94;;;6.31;100.00
9419;BME280;4748;50.802;7.132;2022-12-08T10:21:50;100301.38;;;6.39;100.00
9419;BME280;4748;50.802;7.132;2022-12-08T10:26:48;100295.06;;;6.40;100.00
9419;BME280;4748;50.802;7.132;2022-12-08T10:29:14;100299.56;;;6.39;100.00
9419;BME280;4748;50.802;7.132;2022-12-08T10:31:40;100295.47;;;6.37;100.00
9419;BME280;4748;50.802;7.132;2022-12-08T10:34:20;100294.88;;;6.48;100.00
9419;BME280;4748;50.802;7.132;2022-12-08T10:39:35;100282.00;;;6.45;100.00
9419;BME280;4748;50.802;7.132;2022-12-08T10:47:25;100277.09;;;6.67;100.00
9419;BME280;4748;50.802;7.132;2022-12-08T10:52:45;100264.63;;;6.61;100.00
9419;BME280;4748;50.802;7.132;2022-12-08T10:55:20;100266.03;;;6.64;100.00
9419;BME280;4748;50.802;7.132;2022-12-08T10:57:46;100268.91;;;6.56;100.00
9419;BME280;4748;50.802;7.132;2022-12-08T11:00:25;100261.53;;;6.45;100.00
9419;BME280;4748;50.802;7.132;2022-12-08T11:03:02;100258.69;;;6.59;100.00
9419;BME280;4748;50.802;7.132;2022-12-08T11:05:33;100259.47;;;6.47;100.00
9419;BME280;4748;50.802;7.132;2022-12-08T11:07:58;100258.25;;;6.50;100.00
9419;BME280;4748;50.802;7.132;2022-12-08T11:10:36;100249.69;;;6.60;100.00
9419;BME280;4748;50.802;7.132;2022-12-08T11:13:15;100251.72;;;6.58;100.00
9419;BME280;4748;50.802;7.132;2022-12-08T11:15:43;100250.91;;;6.64;100.00
9419;BME280;4748;50.802;7.132;2022-12-08T11:18:26;100254.38;;;6.65;100.00
9419;BME280;4748;50.802;7.132;2022-12-08T11:20:58;100250.50;;;6.67;100.00
9419;BME280;4748;50.802;7.132;2022-12-08T11:23:26;100250.69;;;6.59;100.00
9419;BME280;4748;50.802;7.132;2022-12-08T11:25:56;100248.47;;;6.57;100.00
9419;BME280;4748;50.802;7.132;2022-12-08T11:28:23;100250.72;;;6.53;100.00
9419;BME280;4748;50.802;7.132;2022-12-08T11:31:00;100248.03;;;6.59;100.00
9419;BME280;4748;50.802;7.132;2022-12-08T11:33:28;100250.91;;;6.64;100.00
9419;BME280;4748;50.802;7.132;2022-12-08T11:36:01;100253.78;;;6.69;100.00
9419;BME280;4748;50.802;7.132;2022-12-08T11:38:28;100251.94;;;6.70;100.00
9419;BME280;4748;50.802;7.132;2022-12-08T11:46:00;100240.47;;;6.82;100.00
9419;BME280;4748;50.802;7.132;2022-12-08T11:48:39;100240.06;;;6.85;100.00
9419;BME280;4748;50.802;7.132;2022-12-08T11:51:36;100235.75;;;6.91;100.00
9419;BME280;4748;50.802;7.132;2022-12-08T11:56:41;100228.78;;;6.96;100.00
9419;BME280;4748;50.802;7.132;2022-12-08T11:59:20;100216.50;;;6.95;100.00
9419;BME280;4748;50.802;7.132;2022-12-08T12:01:48;100225.13;;;6.97;100.00
9419;BME280;4748;50.802;7.132;2022-12-08T12:18:23;100216.97;;;7.49;100.00
9419;BME280;4748;50.802;7.132;2022-12-08T12:24:09;100213.13;;;7.38;100.00
9419;BME280;4748;50.802;7.132;2022-12-08T12:27:01;100212.28;;;7.44;100.00
9419;BME280;4748;50.802;7.132;2022-12-08T12:29:35;100213.09;;;7.51;100.00
9419;BME280;4748;50.802;7.132;2022-12-08T12:32:06;100206.31;;;7.49;100.00
9419;BME280;4748;50.802;7.132;2022-12-08T12:34:35;100199.59;;;7.40;100.00
9419;BME280;4748;50.802;7.132;2022-12-08T12:37:12;100203.28;;;7.39;100.00
9419;BME280;4748;50.802;7.132;2022-12-08T12:39:56;100197.59;;;7.35;100.00
9419;BME280;4748;50.802;7.132;2022-12-08T12:42:42;100198.75;;;7.46;100.00
9419;BME280;4748;50.802;7.132;2022-12-08T12:47:48;100202.50;;;7.32;100.00
9419;BME280;4748;50.802;7.132;2022-12-08T12:56:00;100190.03;;;7.32;100.00
9419;BME280;4748;50.802;7.132;2022-12-08T13:03:40;100181.63;;;7.29;100.00
9419;BME280;4748;50.802;7.132;2022-12-08T13:06:06;100187.38;;;7.26;100.00
9419;BME280;4748;50.802;7.132;2022-12-08T13:08:37;100192.28;;;7.29;100.00
9419;BME280;4748;50.802;7.132;2022-12-08T13:11:06;100195.56;;;7.24;100.00
9419;BME280;4748;50.802;7.132;2022-12-08T13:13:35;100184.28;;;7.29;100.00
9419;BME280;4748;50.802;7.132;2022-12-08T13:16:03;100189.00;;;7.27;100.00
9419;BME280;4748;50.802;7.132;2022-12-08T13:18:49;100186.56;;;7.19;100.00
9419;BME280;4748;50.802;7.132;2022-12-08T13:21:20;100186.16;;;7.22;100.00
9419;BME280;4748;50.802;7.132;2022-12-08T13:24:11;100184.91;;;7.24;100.00
9419;BME280;4748;50.802;7.132;2022-12-08T13:31:58;100183.69;;;7.27;100.00
9419;BME280;4748;50.802;7.132;2022-12-08T13:34:40;100183.28;;;7.23;100.00
9419;BME280;4748;50.802;7.132;2022-12-08T13:39:50;100182.94;;;7.07;100.00
9419;BME280;4748;50.802;7.132;2022-12-08T13:45:03;100185.22;;;6.97;100.00
9419;BME280;4748;50.802;7.132;2022-12-08T13:47:57;100180.09;;;6.96;100.00
9419;BME280;4748;50.802;7.132;2022-12-08T13:50:29;100173.94;;;6.95;100.00
9419;BME280;4748;50.802;7.132;2022-12-08T13:53:01;100173.34;;;6.93;100.00
9419;BME280;4748;50.802;7.132;2022-12-08T13:55:35;100169.88;;;6.93;100.00
9419;BME280;4748;50.802;7.132;2022-12-08T13:58:03;100174.34;;;6.99;100.00
9419;BME280;4748;50.802;7.132;2022-12-08T14:00:28;100174.34;;;6.92;100.00
9419;BME280;4748;50.802;7.132;2022-12-08T14:02:58;100177.22;;;6.97;100.00
9419;BME280;4748;50.802;7.132;2022-12-08T14:05:26;100179.25;;;7.02;100.00
9419;BME280;4748;50.802;7.132;2022-12-08T14:08:02;100172.72;;;6.98;100.00
9419;BME280;4748;50.802;7.132;2022-12-08T14:10:31;100172.91;;;6.96;100.00
9419;BME280;4748;50.802;7.132;2022-12-08T14:13:03;100173.50;;;6.98;100.00
9419;BME280;4748;50.802;7.132;2022-12-08T14:15:33;100182.13;;;7.00;100.00
9419;BME280;4748;50.802;7.132;2022-12-08T14:17:59;100179.47;;;7.00;100.00
9419;BME280;4748;50.802;7.132;2022-12-08T14:20:29;100182.13;;;7.00;100.00
9419;BME280;4748;50.802;7.132;2022-12-08T14:22:56;100178.63;;;7.00;100.00
9419;BME280;4748;50.802;7.132;2022-12-08T14:25:23;100180.06;;;7.02;100.00
9419;BME280;4748;50.802;7.132;2022-12-08T14:27:55;100178.44;;;6.88;100.00
9419;BME280;4748;50.802;7.132;2022-12-08T14:30:33;100181.50;;;6.98;100.00
9419;BME280;4748;50.802;7.132;2022-12-08T14:33:02;100172.31;;;6.94;100.00
9419;BME280;4748;50.802;7.132;2022-12-08T14:35:36;100179.25;;;6.95;100.00
9419;BME280;4748;50.802;7.132;2022-12-08T14:38:12;100175.78;;;6.88;100.00
9419;BME280;4748;50.802;7.132;2022-12-08T14:40:42;100177.66;;;6.94;100.00
9419;BME280;4748;50.802;7.132;2022-12-08T14:48:25;100188.69;;;6.85;100.00
9419;BME280;4748;50.802;7.132;2022-12-08T14:51:08;100181.13;;;6.88;100.00
9419;BME280;4748;50.802;7.132;2022-12-08T14:53:43;100187.69;;;6.86;100.00
9419;BME280;4748;50.802;7.132;2022-12-08T14:56:25;100186.88;;;6.79;100.00